createdAt,value
2019-02-20T00:02:00.914Z,101376.55
2019-02-20T00:04:31.561Z,101392.05
2019-02-20T00:07:01.514Z,101396.12
2019-02-20T00:09:31.927Z,101394.14
2019-02-20T00:12:02.188Z,101385.70
2019-02-20T00:14:32.095Z,101396.28
2019-02-20T00:17:02.358Z,101396.97
2019-02-20T00:19:32.692Z,101391.56
2019-02-20T00:22:03.027Z,101391.71
2019-02-20T00:24:33.208Z,101391.39
2019-02-20T00:27:03.200Z,101398.01
2019-02-20T00:29:33.408Z,101401.86
2019-02-20T00:32:03.561Z,101400.36
2019-02-20T00:34:33.461Z,101393.89
2019-02-20T00:37:03.368Z,101402.41
2019-02-20T00:39:33.505Z,101401.84
2019-02-20T00:42:03.413Z,101401.76
2019-02-20T00:45:10.518Z,101393.13
2019-02-20T00:47:51.194Z,101403.14
2019-02-20T00:50:22.768Z,101406.42
2019-02-20T00:52:57.916Z,101407.64
2019-02-20T00:55:27.894Z,101407.58
2019-02-20T00:57:58.102Z,101405.98
2019-02-20T01:00:28.228Z,101405.19
2019-02-20T01:02:58.124Z,101412.16
2019-02-20T01:05:28.008Z,101410.45
2019-02-20T01:07:58.211Z,101411.06
2019-02-20T01:10:28.493Z,101413.57
2019-02-20T01:12:59.217Z,101420.80
2019-02-20T01:15:29.093Z,101417.92
2019-02-20T01:17:58.995Z,101425.10
2019-02-20T01:20:29.399Z,101418.72
2019-02-20T01:23:00.378Z,101418.34
2019-02-20T01:25:30.441Z,101418.65
2019-02-20T01:28:00.386Z,101413.38
2019-02-20T01:30:30.308Z,101412.30
2019-02-20T01:33:00.287Z,101415.73
2019-02-20T01:35:30.351Z,101418.03
2019-02-20T01:38:00.574Z,101417.02
2019-02-20T01:40:30.587Z,101416.89
2019-02-20T01:43:00.510Z,101413.95
2019-02-20T01:45:30.495Z,101414.24
2019-02-20T01:48:00.467Z,101412.42
2019-02-20T01:50:30.357Z,101413.99
2019-02-20T01:53:09.819Z,101412.34
2019-02-20T01:55:32.241Z,101406.66
2019-02-20T01:58:02.384Z,101412.52
2019-02-20T02:00:32.253Z,101402.22
2019-02-20T02:03:02.173Z,101409.41
2019-02-20T02:05:32.432Z,101405.00
2019-02-20T02:08:02.372Z,101406.21
2019-02-20T02:10:32.331Z,101406.22
2019-02-20T02:13:02.483Z,101395.86
2019-02-20T02:15:32.726Z,101403.00
2019-02-20T02:18:02.645Z,101407.00
2019-02-20T02:20:32.720Z,101414.80
2019-02-20T02:23:02.871Z,101413.22
2019-02-20T02:25:32.860Z,101409.42
2019-02-20T02:28:02.857Z,101409.66
2019-02-20T02:30:32.840Z,101417.73
2019-02-20T02:33:02.781Z,101415.09
2019-02-20T02:35:32.755Z,101418.67
2019-02-20T02:38:02.668Z,101410.86
2019-02-20T02:40:32.580Z,101415.52
2019-02-20T02:43:02.466Z,101423.13
2019-02-20T02:45:32.371Z,101419.45
2019-02-20T02:48:02.522Z,101417.80
2019-02-20T02:50:32.429Z,101425.17
2019-02-20T02:53:02.345Z,101422.24
2019-02-20T02:55:32.253Z,101423.60
2019-02-20T02:58:02.174Z,101428.60
2019-02-20T03:00:32.142Z,101424.12
2019-02-20T03:03:02.055Z,101424.94
2019-02-20T03:05:31.976Z,101423.45
2019-02-20T03:08:01.887Z,101424.81
2019-02-20T03:10:32.074Z,101425.92
2019-02-20T03:13:02.293Z,101425.62
2019-02-20T03:15:32.211Z,101429.81
2019-02-20T03:18:02.538Z,101427.48
2019-02-20T03:20:32.456Z,101426.63
2019-02-20T03:23:02.855Z,101428.40
2019-02-20T03:25:32.776Z,101440.19
2019-02-20T03:28:02.897Z,101439.92
2019-02-20T03:30:32.895Z,101433.47
2019-02-20T03:33:02.786Z,101442.45
2019-02-20T03:35:32.658Z,101444.25
2019-02-20T03:38:02.614Z,101444.56
2019-02-20T03:40:32.512Z,101449.69
2019-02-20T03:43:02.693Z,101443.11
2019-02-20T03:45:32.625Z,101449.77
2019-02-20T03:48:02.623Z,101454.34
2019-02-20T03:50:32.774Z,101448.68
2019-02-20T03:53:02.942Z,101450.33
2019-02-20T03:55:32.908Z,101454.34
2019-02-20T03:58:02.985Z,101450.39
2019-02-20T04:00:32.884Z,101458.16
2019-02-20T04:03:02.904Z,101457.96
2019-02-20T04:05:33.064Z,101450.94
2019-02-20T04:08:03.022Z,101446.68
2019-02-20T04:10:32.922Z,101450.33
2019-02-20T04:13:02.826Z,101451.20
2019-02-20T04:15:32.894Z,101448.44
2019-02-20T04:18:02.919Z,101457.77
2019-02-20T04:20:32.817Z,101456.47
2019-02-20T04:23:02.745Z,101455.24
2019-02-20T04:25:33.228Z,101464.54
2019-02-20T04:28:03.143Z,101464.54
2019-02-20T04:30:33.168Z,101467.66
2019-02-20T04:33:03.384Z,101461.18
2019-02-20T04:35:33.386Z,101455.13
2019-02-20T04:38:03.327Z,101461.55
2019-02-20T04:40:33.274Z,101455.09
2019-02-20T04:43:04.385Z,101460.31
2019-02-20T04:45:34.307Z,101455.27
2019-02-20T04:48:04.395Z,101455.19
2019-02-20T04:50:34.301Z,101469.45
2019-02-20T04:53:04.476Z,101470.64
2019-02-20T04:55:34.380Z,101469.20
2019-02-20T04:58:21.899Z,101466.72
2019-02-20T05:00:52.036Z,101463.44
2019-02-20T05:03:23.225Z,101462.14
2019-02-20T05:05:53.508Z,101464.45
2019-02-20T05:08:23.650Z,101468.73
2019-02-20T05:10:53.552Z,101467.39
2019-02-20T05:13:23.714Z,101473.83
2019-02-20T05:15:53.649Z,101471.91
2019-02-20T05:18:23.683Z,101479.71
2019-02-20T05:20:53.911Z,101478.42
2019-02-20T05:23:23.827Z,101472.45
2019-02-20T05:25:53.833Z,101468.08
2019-02-20T05:28:23.754Z,101468.97
2019-02-20T05:30:53.679Z,101475.05
2019-02-20T05:33:23.632Z,101476.13
2019-02-20T05:35:53.800Z,101479.20
2019-02-20T05:38:23.983Z,101476.22
2019-02-20T05:40:53.898Z,101479.06
2019-02-20T05:43:23.901Z,101479.17
2019-02-20T05:45:54.173Z,101493.18
2019-02-20T05:48:24.410Z,101489.23
2019-02-20T05:50:54.718Z,101494.78
2019-02-20T05:53:24.741Z,101489.91
2019-02-20T05:55:54.977Z,101488.42
2019-02-20T05:58:24.902Z,101499.72
2019-02-20T06:00:55.580Z,101502.41
2019-02-20T06:03:25.587Z,101502.97
2019-02-20T06:05:55.525Z,101501.28
2019-02-20T06:08:25.477Z,101499.86
2019-02-20T06:10:55.721Z,101510.21
2019-02-20T06:13:25.878Z,101509.86
2019-02-20T06:15:55.821Z,101499.22
2019-02-20T06:18:25.786Z,101502.06
2019-02-20T06:20:55.706Z,101503.08
2019-02-20T06:23:25.685Z,101501.85
2019-02-20T06:25:55.625Z,101509.22
2019-02-20T06:28:25.535Z,101520.69
2019-02-20T06:30:55.491Z,101521.08
2019-02-20T06:33:25.410Z,101519.78
2019-02-20T06:35:55.346Z,101518.56
2019-02-20T06:38:25.295Z,101526.69
2019-02-20T06:40:55.244Z,101531.38
2019-02-20T06:43:25.170Z,101531.45
2019-02-20T06:45:55.934Z,101533.80
2019-02-20T06:48:25.884Z,101535.67
2019-02-20T06:50:55.797Z,101541.38
2019-02-20T06:53:25.735Z,101551.44
2019-02-20T06:55:55.906Z,101550.38
2019-02-20T06:58:25.848Z,101546.83
2019-02-20T07:00:55.762Z,101549.61
2019-02-20T07:03:25.789Z,101553.39
2019-02-20T07:06:31.293Z,101557.04
2019-02-20T07:10:15.069Z,101560.46
2019-02-20T07:13:28.589Z,101558.40
2019-02-20T07:16:41.062Z,101558.38
2019-02-20T07:20:24.576Z,101566.91
2019-02-20T07:23:10.664Z,101574.41
2019-02-20T07:26:12.294Z,101580.23
2019-02-20T07:29:07.340Z,101578.37
2019-02-20T07:31:37.313Z,101589.17
2019-02-20T07:34:07.668Z,101586.96
2019-02-20T07:36:37.865Z,101601.16
2019-02-20T07:39:08.607Z,101601.11
2019-02-20T07:41:38.576Z,101596.53
2019-02-20T07:44:08.583Z,101599.66
2019-02-20T07:46:38.770Z,101603.94
2019-02-20T07:49:08.942Z,101606.14
2019-02-20T07:51:38.855Z,101612.67
2019-02-20T07:54:08.773Z,101613.19
2019-02-20T07:56:38.754Z,101613.34
2019-02-20T07:59:08.933Z,101617.14
2019-02-20T08:01:39.033Z,101618.17
2019-02-20T08:04:09.023Z,101627.13
2019-02-20T08:06:40.293Z,101627.94
2019-02-20T08:09:10.516Z,101631.78
2019-02-20T08:11:40.587Z,101630.84
2019-02-20T08:14:10.843Z,101634.11
2019-02-20T08:16:40.828Z,101642.84
2019-02-20T08:19:11.137Z,101645.20
2019-02-20T08:21:41.776Z,101640.14
2019-02-20T08:24:11.811Z,101649.44
2019-02-20T08:26:41.717Z,101646.73
2019-02-20T08:29:11.665Z,101643.93
2019-02-20T08:31:41.633Z,101643.56
2019-02-20T08:34:11.683Z,101650.47
2019-02-20T08:36:42.262Z,101654.81
2019-02-20T08:39:12.632Z,101656.22
2019-02-20T08:41:44.717Z,101657.20
2019-02-20T08:44:15.581Z,101666.19
2019-02-20T08:46:46.987Z,101671.20
2019-02-20T08:49:17.142Z,101676.56
2019-02-20T08:51:47.106Z,101679.75
2019-02-20T08:54:17.059Z,101686.63
2019-02-20T08:56:47.305Z,101691.74
2019-02-20T08:59:17.345Z,101695.09
2019-02-20T09:01:47.314Z,101680.82
2019-02-20T09:04:17.582Z,101687.64
2019-02-20T09:06:47.567Z,101699.69
2019-02-20T09:09:17.691Z,101700.94
2019-02-20T09:11:47.700Z,101707.41
2019-02-20T09:14:17.650Z,101703.77
2019-02-20T09:16:47.771Z,101708.52
2019-02-20T09:19:17.674Z,101714.45
2019-02-20T09:21:47.733Z,101719.88
2019-02-20T09:24:17.780Z,101713.55
2019-02-20T09:26:48.135Z,101720.91
2019-02-20T09:29:18.302Z,101717.78
2019-02-20T09:31:48.338Z,101726.00
2019-02-20T09:34:18.275Z,101721.48
2019-02-20T09:36:48.578Z,101729.69
2019-02-20T09:39:36.005Z,101730.55
2019-02-20T09:42:14.657Z,101730.77
2019-02-20T09:44:49.639Z,101728.69
2019-02-20T09:47:21.212Z,101728.05
2019-02-20T09:49:51.222Z,101733.48
2019-02-20T09:52:21.415Z,101735.63
2019-02-20T09:54:51.534Z,101736.59
2019-02-20T09:57:21.506Z,101741.55
2019-02-20T09:59:51.457Z,101741.75
2019-02-20T10:02:21.465Z,101741.09
2019-02-20T10:04:51.805Z,101741.63
2019-02-20T10:07:22.129Z,101742.69
2019-02-20T10:09:52.263Z,101736.92
2019-02-20T10:12:22.235Z,101732.66
2019-02-20T10:14:52.185Z,101736.61
2019-02-20T10:17:22.182Z,101740.42
2019-02-20T10:19:52.559Z,101734.94
2019-02-20T10:22:22.639Z,101738.98
2019-02-20T10:24:52.635Z,101745.63
2019-02-20T10:27:22.618Z,101736.77
2019-02-20T10:29:52.640Z,101746.99
2019-02-20T10:32:22.614Z,101754.58
2019-02-20T10:34:52.553Z,101762.59
2019-02-20T10:37:22.703Z,101761.12
2019-02-20T10:39:52.834Z,101758.50
2019-02-20T10:42:22.856Z,101756.84
2019-02-20T10:44:52.900Z,101761.91
2019-02-20T10:47:22.861Z,101751.25
2019-02-20T10:49:52.912Z,101746.86
2019-02-20T10:52:22.948Z,101753.18
2019-02-20T10:54:57.724Z,101759.37
2019-02-20T10:57:24.539Z,101761.41
2019-02-20T10:59:54.486Z,101756.56
2019-02-20T11:02:24.843Z,101760.13
2019-02-20T11:04:55.022Z,101759.86
2019-02-20T11:07:24.927Z,101756.72
2019-02-20T11:09:55.022Z,101760.48
2019-02-20T11:12:25.073Z,101753.70
2019-02-20T11:14:55.270Z,101755.92
2019-02-20T11:17:25.532Z,101754.89
2019-02-20T11:19:55.446Z,101758.42
2019-02-20T11:22:25.407Z,101757.34
2019-02-20T11:24:55.592Z,101759.53
2019-02-20T11:27:25.614Z,101753.10
2019-02-20T11:29:55.505Z,101749.61
2019-02-20T11:32:25.511Z,101746.13
2019-02-20T11:34:55.435Z,101751.27
2019-02-20T11:37:25.455Z,101750.66
2019-02-20T11:39:55.354Z,101745.83
2019-02-20T11:42:25.297Z,101742.58
2019-02-20T11:44:55.292Z,101747.36
2019-02-20T11:47:25.317Z,101744.67
2019-02-20T11:49:55.270Z,101743.36
2019-02-20T11:52:25.261Z,101740.42
2019-02-20T11:54:57.141Z,101752.80
2019-02-20T11:57:27.189Z,101743.64
2019-02-20T11:59:57.124Z,101745.66
2019-02-20T12:02:27.383Z,101741.30
2019-02-20T12:04:57.360Z,101744.41
2019-02-20T12:07:27.509Z,101739.76
2019-02-20T12:09:57.594Z,101729.48
2019-02-20T12:12:27.630Z,101729.16
2019-02-20T12:14:57.572Z,101732.70
2019-02-20T12:17:28.427Z,101737.02
2019-02-20T12:19:58.372Z,101738.70
2019-02-20T12:22:28.295Z,101738.47
2019-02-20T12:24:59.347Z,101739.35
2019-02-20T12:27:29.614Z,101738.57
2019-02-20T12:29:59.608Z,101737.89
2019-02-20T12:32:30.915Z,101737.09
2019-02-20T12:35:00.968Z,101740.77
2019-02-20T12:37:30.976Z,101741.24
2019-02-20T12:40:00.867Z,101738.03
2019-02-20T12:42:30.774Z,101740.52
2019-02-20T12:45:00.784Z,101734.08
2019-02-20T12:47:31.187Z,101743.59
2019-02-20T12:50:01.159Z,101745.33
2019-02-20T12:52:31.103Z,101744.73
2019-02-20T12:55:01.250Z,101750.98
2019-02-20T12:57:31.296Z,101749.36
2019-02-20T13:00:01.221Z,101746.45
2019-02-20T13:02:31.199Z,101742.06
2019-02-20T13:05:01.353Z,101742.14
2019-02-20T13:07:33.124Z,101744.75
2019-02-20T13:10:03.286Z,101735.98
2019-02-20T13:12:33.668Z,101743.84
2019-02-20T13:15:03.817Z,101745.37
2019-02-20T13:17:33.818Z,101741.50
2019-02-20T13:20:04.031Z,101745.82
2019-02-20T13:22:33.953Z,101745.00
2019-02-20T13:25:04.199Z,101741.52
2019-02-20T13:27:34.175Z,101742.46
2019-02-20T13:30:04.593Z,101745.59
2019-02-20T13:32:34.513Z,101741.95
2019-02-20T13:35:04.818Z,101743.05
2019-02-20T13:37:34.813Z,101739.84
2019-02-20T13:40:05.102Z,101737.80
2019-02-20T13:42:35.028Z,101741.25
2019-02-20T13:45:05.615Z,101743.06
2019-02-20T13:47:35.842Z,101741.22
2019-02-20T13:50:07.327Z,101746.23
2019-02-20T13:52:37.266Z,101737.83
2019-02-20T13:55:07.444Z,101743.13
2019-02-20T13:57:37.391Z,101737.95
2019-02-20T14:00:08.056Z,101742.46
2019-02-20T14:02:37.969Z,101752.80
2019-02-20T14:05:08.937Z,101745.02
2019-02-20T14:07:39.568Z,101746.48
2019-02-20T14:10:11.794Z,101752.46
2019-02-20T14:12:42.068Z,101749.94
2019-02-20T14:15:12.466Z,101746.33
2019-02-20T14:17:42.411Z,101749.44
2019-02-20T14:20:12.880Z,101750.42
2019-02-20T14:22:43.192Z,101746.17
2019-02-20T14:25:13.196Z,101746.77
2019-02-20T14:27:43.494Z,101742.50
2019-02-20T14:30:13.798Z,101744.83
2019-02-20T14:32:43.719Z,101742.79
2019-02-20T14:35:15.056Z,101742.77
2019-02-20T14:37:45.255Z,101745.05
2019-02-20T14:40:15.261Z,101750.69
2019-02-20T14:42:45.304Z,101752.72
2019-02-20T14:45:16.217Z,101744.10
2019-02-20T14:47:46.265Z,101745.00
2019-02-20T14:50:16.316Z,101751.44
2019-02-20T14:52:46.246Z,101750.52
2019-02-20T14:55:16.294Z,101755.75
2019-02-20T14:57:46.658Z,101762.95
2019-02-20T15:00:16.886Z,101761.73
2019-02-20T15:02:46.903Z,101762.20
2019-02-20T15:05:16.869Z,101766.91
2019-02-20T15:07:46.791Z,101758.59
2019-02-20T15:10:16.807Z,101763.22
2019-02-20T15:12:47.031Z,101759.31
2019-02-20T15:15:18.917Z,101765.30
2019-02-20T15:17:48.739Z,101779.12
2019-02-20T15:20:19.416Z,101764.20
2019-02-20T15:22:49.433Z,101769.92
2019-02-20T15:25:19.456Z,101775.05
2019-02-20T15:27:49.461Z,101778.95
2019-02-20T15:30:19.932Z,101782.30
2019-02-20T15:32:50.974Z,101784.68
2019-02-20T15:35:21.068Z,101780.66
2019-02-20T15:37:51.141Z,101780.08
2019-02-20T15:40:21.137Z,101789.94
2019-02-20T15:42:51.165Z,101794.81
2019-02-20T15:45:21.448Z,101791.88
2019-02-20T15:47:51.831Z,101795.74
2019-02-20T15:50:22.231Z,101790.97
2019-02-20T15:52:52.180Z,101787.64
2019-02-20T15:55:22.361Z,101792.26
2019-02-20T15:57:52.371Z,101800.93
2019-02-20T16:00:24.925Z,101791.50
2019-02-20T16:02:55.680Z,101794.95
2019-02-20T16:05:25.977Z,101803.27
2019-02-20T16:07:56.183Z,101801.66
2019-02-20T16:10:26.254Z,101807.70
2019-02-20T16:12:57.099Z,101806.52
2019-02-20T16:15:27.079Z,101799.71
2019-02-20T16:17:57.380Z,101801.39
2019-02-20T16:20:27.522Z,101812.59
2019-02-20T16:22:57.715Z,101815.76
2019-02-20T16:25:27.744Z,101815.45
2019-02-20T16:27:57.756Z,101828.48
2019-02-20T16:30:28.027Z,101818.05
2019-02-20T16:32:58.219Z,101813.26
2019-02-20T16:35:28.218Z,101819.34
2019-02-20T16:37:58.489Z,101833.92
2019-02-20T16:40:28.497Z,101826.55
2019-02-20T16:42:58.477Z,101841.44
2019-02-20T16:45:28.498Z,101835.66
2019-02-20T16:47:58.491Z,101844.95
2019-02-20T16:50:28.429Z,101851.75
2019-02-20T16:52:58.491Z,101844.11
2019-02-20T16:55:28.678Z,101845.34
2019-02-20T16:57:58.626Z,101835.48
2019-02-20T17:00:28.676Z,101848.98
2019-02-20T17:02:58.777Z,101847.83
2019-02-20T17:05:29.055Z,101853.14
2019-02-20T17:07:58.995Z,101854.34
2019-02-20T17:10:29.070Z,101856.03
2019-02-20T17:12:59.119Z,101861.25
2019-02-20T17:15:29.006Z,101862.83
2019-02-20T17:17:58.969Z,101864.20
2019-02-20T17:20:28.940Z,101865.16
2019-02-20T17:22:59.019Z,101874.95
2019-02-20T17:25:29.004Z,101873.98
2019-02-20T17:28:05.466Z,101882.00
2019-02-20T17:30:31.005Z,101884.66
2019-02-20T17:33:01.002Z,101882.70
2019-02-20T17:35:31.541Z,101888.75
2019-02-20T17:38:01.667Z,101882.23
2019-02-20T17:40:31.710Z,101895.44
2019-02-20T17:43:01.662Z,101898.56
2019-02-20T17:45:31.915Z,101902.98
2019-02-20T17:48:01.841Z,101902.75
2019-02-20T17:50:31.758Z,101897.53
2019-02-20T17:53:03.361Z,101895.03
2019-02-20T17:55:33.386Z,101897.80
2019-02-20T17:58:03.718Z,101904.58
2019-02-20T18:00:33.775Z,101903.30
2019-02-20T18:03:03.834Z,101900.17
2019-02-20T18:05:33.902Z,101905.00
2019-02-20T18:08:04.062Z,101912.06
2019-02-20T18:10:34.142Z,101910.99
2019-02-20T18:13:04.460Z,101906.00
2019-02-20T18:15:34.676Z,101903.81
2019-02-20T18:18:04.756Z,101904.53
2019-02-20T18:20:34.713Z,101910.97
2019-02-20T18:23:05.187Z,101905.20
2019-02-20T18:25:35.464Z,101910.22
2019-02-20T18:28:06.474Z,101910.30
2019-02-20T18:30:36.664Z,101913.69
2019-02-20T18:33:06.660Z,101910.91
2019-02-20T18:35:36.755Z,101917.38
2019-02-20T18:38:06.965Z,101914.83
2019-02-20T18:40:36.892Z,101917.41
2019-02-20T18:43:07.034Z,101916.57
2019-02-20T18:45:37.129Z,101921.94
2019-02-20T18:48:07.350Z,101917.61
2019-02-20T18:50:37.261Z,101918.05
2019-02-20T18:53:07.546Z,101919.56
2019-02-20T18:55:37.612Z,101926.62
2019-02-20T18:58:07.963Z,101922.69
2019-02-20T19:00:38.179Z,101923.08
2019-02-20T19:03:08.283Z,101927.64
2019-02-20T19:05:38.289Z,101929.59
2019-02-20T19:08:52.699Z,101934.20
2019-02-20T19:11:38.734Z,101939.80
2019-02-20T19:14:15.937Z,101937.16
2019-02-20T19:17:27.047Z,101938.17
2019-02-20T19:20:32.975Z,101938.45
2019-02-20T19:24:21.794Z,101934.77
2019-02-20T19:27:27.762Z,101940.06
2019-02-20T19:30:51.220Z,101943.77
2019-02-20T19:33:55.300Z,101944.98
2019-02-20T19:37:07.167Z,101938.47
2019-02-20T19:40:01.873Z,101943.15
2019-02-20T19:43:33.118Z,101939.17
2019-02-20T19:46:45.039Z,101944.69
2019-02-20T19:50:14.265Z,101945.86
2019-02-20T19:53:32.099Z,101942.55
2019-02-20T19:56:40.245Z,101947.95
2019-02-20T20:00:21.036Z,101938.71
2019-02-20T20:03:36.509Z,101945.17
2019-02-20T20:06:51.347Z,101956.43
2019-02-20T20:10:05.832Z,101951.41
2019-02-20T20:13:33.920Z,101950.95
2019-02-20T20:17:04.671Z,101951.20
2019-02-20T20:20:12.288Z,101955.28
2019-02-20T20:23:38.933Z,101949.86
2019-02-20T20:27:08.208Z,101950.40
2019-02-20T20:30:27.743Z,101948.37
2019-02-20T20:33:45.654Z,101951.08
2019-02-20T20:36:45.649Z,101946.64
2019-02-20T20:39:53.050Z,101951.00
2019-02-20T20:43:16.394Z,101948.66
2019-02-20T20:46:50.167Z,101945.75
2019-02-20T20:50:25.498Z,101944.74
2019-02-20T20:53:51.607Z,101957.88
2019-02-20T20:56:57.686Z,101955.28
2019-02-20T20:59:48.732Z,101958.73
2019-02-20T21:02:37.078Z,101956.77
2019-02-20T21:06:19.352Z,101956.91
2019-02-20T21:10:10.767Z,101952.42
2019-02-20T21:13:29.186Z,101953.23
2019-02-20T21:16:21.612Z,101951.23
2019-02-20T21:19:36.567Z,101941.83
2019-02-20T21:22:46.411Z,101935.52
2019-02-20T21:26:08.055Z,101942.94
2019-02-20T21:29:40.619Z,101941.05
2019-02-20T21:33:26.491Z,101944.19
2019-02-20T21:36:38.901Z,101952.66
2019-02-20T21:39:33.345Z,101944.01
2019-02-20T21:42:43.770Z,101957.61
2019-02-20T21:45:47.433Z,101949.08
2019-02-20T21:49:42.246Z,101952.11
2019-02-20T21:53:12.604Z,101953.31
2019-02-20T21:56:21.664Z,101951.95
2019-02-20T22:00:07.027Z,101956.23
2019-02-20T22:03:41.265Z,101958.90
2019-02-20T22:06:44.501Z,101955.80
2019-02-20T22:10:01.886Z,101956.78
2019-02-20T22:13:38.442Z,101952.30
2019-02-20T22:17:04.807Z,101954.16
2019-02-20T22:20:25.456Z,101945.47
2019-02-20T22:23:33.409Z,101944.77
2019-02-20T22:26:55.304Z,101950.92
2019-02-20T22:30:36.234Z,101953.08
2019-02-20T22:33:50.450Z,101957.02
2019-02-20T22:36:42.483Z,101959.32
2019-02-20T22:39:41.968Z,101961.50
2019-02-20T22:42:33.329Z,101960.70
2019-02-20T22:46:03.004Z,101962.45
2019-02-20T22:49:22.790Z,101964.92
2019-02-20T22:52:26.953Z,101976.73
2019-02-20T22:55:40.715Z,101980.72
2019-02-20T22:58:44.911Z,101977.37
2019-02-20T23:02:27.808Z,101974.31
2019-02-20T23:05:38.500Z,101979.30
2019-02-20T23:08:44.459Z,101977.01
2019-02-20T23:11:41.566Z,101973.71
2019-02-20T23:14:46.499Z,101981.64
2019-02-20T23:17:16.786Z,101983.52
2019-02-20T23:19:48.611Z,101980.75
2019-02-20T23:22:19.805Z,101981.65
2019-02-20T23:24:49.917Z,101978.78
2019-02-20T23:27:20.801Z,101980.30
2019-02-20T23:29:50.878Z,101988.36
2019-02-20T23:32:21.735Z,101982.61
2019-02-20T23:34:51.668Z,101987.76
2019-02-20T23:37:22.884Z,101993.32
2019-02-20T23:39:53.198Z,101983.94
2019-02-20T23:42:25.113Z,101981.30
2019-02-20T23:44:55.044Z,101984.58
2019-02-20T23:47:29.051Z,101989.22
2019-02-20T23:49:59.040Z,101984.69
2019-02-20T23:52:29.282Z,101991.43
2019-02-20T23:54:59.182Z,101992.82
2019-02-20T23:57:29.130Z,101989.44
2019-02-20T23:59:59.435Z,101983.02
